sensor_id;sensor_type;location;lat;lon;timestamp;pressure;altitude;pressure_sealevel;temperature;humidity
80294;BME280;69594;43.516;1.498;2023-05-21T00:00:26;99496.31;;;14.86;65.12
80294;BME280;69594;43.516;1.498;2023-05-21T00:02:52;99498.94;;;14.86;65.59
80294;BME280;69594;43.516;1.498;2023-05-21T00:05:18;99504.78;;;14.81;65.70
80294;BME280;69594;43.516;1.498;2023-05-21T00:07:45;99501.91;;;14.76;65.96
80294;BME280;69594;43.516;1.498;2023-05-21T00:10:11;99500.25;;;14.75;65.64
80294;BME280;69594;43.516;1.498;2023-05-21T00:12:37;99495.34;;;14.72;66.05
80294;BME280;69594;43.516;1.498;2023-05-21T00:15:03;99496.34;;;14.71;66.02
80294;BME280;69594;43.516;1.498;2023-05-21T00:17:28;99497.09;;;14.65;66.16
80294;BME280;69594;43.516;1.498;2023-05-21T00:19:54;99498.09;;;14.64;66.24
80294;BME280;69594;43.516;1.498;2023-05-21T00:22:21;99498.09;;;14.64;66.32
80294;BME280;69594;43.516;1.498;2023-05-21T00:24:46;99494.19;;;14.60;66.54
80294;BME280;69594;43.516;1.498;2023-05-21T00:27:12;99490.75;;;14.60;66.70
80294;BME280;69594;43.516;1.498;2023-05-21T00:29:38;99500.09;;;14.62;66.47
80294;BME280;69594;43.516;1.498;2023-05-21T00:32:04;99497.28;;;14.64;66.28
80294;BME280;69594;43.516;1.498;2023-05-21T00:34:29;99494.47;;;14.65;66.56
80294;BME280;69594;43.516;1.498;2023-05-21T00:36:55;99489.53;;;14.62;66.42
80294;BME280;69594;43.516;1.498;2023-05-21T00:39:22;99483.63;;;14.60;66.92
80294;BME280;69594;43.516;1.498;2023-05-21T00:41:48;99489.91;;;14.59;66.76
80294;BME280;69594;43.516;1.498;2023-05-21T00:44:13;99489.47;;;14.56;66.91
80294;BME280;69594;43.516;1.498;2023-05-21T00:46:41;99485.00;;;14.56;66.75
80294;BME280;69594;43.516;1.498;2023-05-21T00:49:09;99474.00;;;14.53;66.85
80294;BME280;69594;43.516;1.498;2023-05-21T00:51:35;99476.81;;;14.51;67.29
80294;BME280;69594;43.516;1.498;2023-05-21T00:54:00;99475.19;;;14.50;67.34
80294;BME280;69594;43.516;1.498;2023-05-21T00:56:26;99476.19;;;14.49;67.36
80294;BME280;69594;43.516;1.498;2023-05-21T00:58:54;99471.91;;;14.48;67.44
80294;BME280;69594;43.516;1.498;2023-05-21T01:01:20;99472.31;;;14.45;67.39
80294;BME280;69594;43.516;1.498;2023-05-21T01:03:45;99479.19;;;14.46;67.06
80294;BME280;69594;43.516;1.498;2023-05-21T01:06:12;99466.56;;;14.41;67.67
80294;BME280;69594;43.516;1.498;2023-05-21T01:08:39;99475.28;;;14.42;67.41
80294;BME280;69594;43.516;1.498;2023-05-21T01:11:07;99462.38;;;14.32;68.23
80294;BME280;69594;43.516;1.498;2023-05-21T01:13:36;99462.66;;;14.37;67.52
80294;BME280;69594;43.516;1.498;2023-05-21T01:16:03;99470.72;;;14.36;67.60
80294;BME280;69594;43.516;1.498;2023-05-21T01:18:31;99459.72;;;14.32;67.64
80294;BME280;69594;43.516;1.498;2023-05-21T01:21:00;99466.81;;;14.32;67.86
80294;BME280;69594;43.516;1.498;2023-05-21T01:23:26;99458.28;;;14.30;67.68
80294;BME280;69594;43.516;1.498;2023-05-21T01:25:52;99459.09;;;14.30;67.69
80294;BME280;69594;43.516;1.498;2023-05-21T01:28:17;99457.66;;;14.28;67.76
80294;BME280;69594;43.516;1.498;2023-05-21T01:30:42;99458.63;;;14.27;67.89
80294;BME280;69594;43.516;1.498;2023-05-21T01:36:24;99462.75;;;14.15;68.15
80294;BME280;69594;43.516;1.498;2023-05-21T01:39:05;99468.84;;;14.15;68.41
80294;BME280;69594;43.516;1.498;2023-05-21T01:41:33;99464.75;;;14.13;67.94
80294;BME280;69594;43.516;1.498;2023-05-21T01:44:02;99474.06;;;14.09;68.45
80294;BME280;69594;43.516;1.498;2023-05-21T01:46:29;99471.84;;;14.12;68.17
80294;BME280;69594;43.516;1.498;2023-05-21T01:48:58;99466.13;;;14.09;68.24
80294;BME280;69594;43.516;1.498;2023-05-21T01:51:24;99468.78;;;14.09;68.43
80294;BME280;69594;43.516;1.498;2023-05-21T01:53:50;99470.59;;;14.08;68.26
80294;BME280;69594;43.516;1.498;2023-05-21T01:56:15;99474.59;;;14.04;68.79
80294;BME280;69594;43.516;1.498;2023-05-21T01:58:40;99469.31;;;14.04;68.59
80294;BME280;69594;43.516;1.498;2023-05-21T02:01:08;99462.22;;;14.04;68.43
80294;BME280;69594;43.516;1.498;2023-05-21T02:03:33;99463.56;;;14.00;68.94
80294;BME280;69594;43.516;1.498;2023-05-21T02:05:59;99461.59;;;14.02;68.54
80294;BME280;69594;43.516;1.498;2023-05-21T02:08:24;99460.31;;;13.98;68.94
80294;BME280;69594;43.516;1.498;2023-05-21T02:10:51;99455.66;;;14.00;68.66
80294;BME280;69594;43.516;1.498;2023-05-21T02:13:17;99459.94;;;14.01;68.78
80294;BME280;69594;43.516;1.498;2023-05-21T02:15:46;99448.94;;;13.98;68.90
80294;BME280;69594;43.516;1.498;2023-05-21T02:18:12;99463.56;;;14.00;68.61
80294;BME280;69594;43.516;1.498;2023-05-21T02:20:41;99458.56;;;14.05;68.54
80294;BME280;69594;43.516;1.498;2023-05-21T02:23:06;99460.88;;;14.09;68.45
80294;BME280;69594;43.516;1.498;2023-05-21T02:25:31;99454.94;;;14.07;68.76
80294;BME280;69594;43.516;1.498;2023-05-21T02:27:57;99464.13;;;14.11;68.21
80294;BME280;69594;43.516;1.498;2023-05-21T02:30:22;99461.31;;;14.12;68.49
80294;BME280;69594;43.516;1.498;2023-05-21T02:32:48;99462.13;;;14.13;68.26
80294;BME280;69594;43.516;1.498;2023-05-21T02:35:13;99468.00;;;14.15;68.25
80294;BME280;69594;43.516;1.498;2023-05-21T02:37:39;99463.75;;;14.14;68.36
80294;BME280;69594;43.516;1.498;2023-05-21T02:40:06;99467.03;;;14.16;68.33
80294;BME280;69594;43.516;1.498;2023-05-21T02:42:32;99471.69;;;14.14;68.44
80294;BME280;69594;43.516;1.498;2023-05-21T02:44:58;99476.94;;;14.14;68.32
80294;BME280;69594;43.516;1.498;2023-05-21T02:47:24;99473.13;;;14.16;68.36
80294;BME280;69594;43.516;1.498;2023-05-21T02:49:51;99467.50;;;14.19;68.18
80294;BME280;69594;43.516;1.498;2023-05-21T02:52:17;99473.56;;;14.20;67.96
80294;BME280;69594;43.516;1.498;2023-05-21T02:54:44;99465.38;;;14.15;68.19
80294;BME280;69594;43.516;1.498;2023-05-21T02:57:09;99466.19;;;14.15;68.23
80294;BME280;69594;43.516;1.498;2023-05-21T02:59:35;99464.66;;;14.21;68.06
80294;BME280;69594;43.516;1.498;2023-05-21T03:02:00;99467.28;;;14.21;68.22
80294;BME280;69594;43.516;1.498;2023-05-21T03:04:26;99462.75;;;14.15;68.47
80294;BME280;69594;43.516;1.498;2023-05-21T03:06:52;99466.66;;;14.19;68.28
80294;BME280;69594;43.516;1.498;2023-05-21T03:09:20;99476.56;;;14.17;68.37
80294;BME280;69594;43.516;1.498;2023-05-21T03:11:46;99471.31;;;14.17;68.17
80294;BME280;69594;43.516;1.498;2023-05-21T03:14:11;99467.03;;;14.16;68.28
80294;BME280;69594;43.516;1.498;2023-05-21T03:16:37;99471.69;;;14.14;68.47
80294;BME280;69594;43.516;1.498;2023-05-21T03:19:09;99461.47;;;14.11;68.56
80294;BME280;69594;43.516;1.498;2023-05-21T03:21:35;99477.56;;;14.16;68.39
80294;BME280;69594;43.516;1.498;2023-05-21T03:24:04;99481.19;;;14.15;68.43
80294;BME280;69594;43.516;1.498;2023-05-21T03:26:30;99479.59;;;14.14;68.39
80294;BME280;69594;43.516;1.498;2023-05-21T03:28:56;99478.69;;;14.07;68.60
80294;BME280;69594;43.516;1.498;2023-05-21T03:31:22;99482.41;;;14.12;68.32
80294;BME280;69594;43.516;1.498;2023-05-21T03:33:48;99474.50;;;14.12;68.05
80294;BME280;69594;43.516;1.498;2023-05-21T03:36:13;99480.59;;;14.13;68.43
80294;BME280;69594;43.516;1.498;2023-05-21T03:38:39;99482.78;;;14.09;68.30
80294;BME280;69594;43.516;1.498;2023-05-21T03:41:05;99481.97;;;14.09;68.44
80294;BME280;69594;43.516;1.498;2023-05-21T03:43:30;99490.16;;;14.14;68.26
80294;BME280;69594;43.516;1.498;2023-05-21T03:45:56;99490.50;;;14.11;68.35
80294;BME280;69594;43.516;1.498;2023-05-21T03:48:21;99482.41;;;14.12;68.20
80294;BME280;69594;43.516;1.498;2023-05-21T03:50:47;99488.78;;;14.03;68.31
80294;BME280;69594;43.516;1.498;2023-05-21T03:53:12;99486.50;;;14.00;68.70
80294;BME280;69594;43.516;1.498;2023-05-21T03:55:38;99482.84;;;14.01;68.59
80294;BME280;69594;43.516;1.498;2023-05-21T03:58:03;99489.13;;;14.00;68.36
80294;BME280;69594;43.516;1.498;2023-05-21T04:00:29;99477.75;;;13.99;68.46
80294;BME280;69594;43.516;1.498;2023-05-21T04:02:56;99490.59;;;14.02;68.23
80294;BME280;69594;43.516;1.498;2023-05-21T04:05:22;99487.31;;;14.00;68.47
80294;BME280;69594;43.516;1.498;2023-05-21T04:07:47;99490.31;;;13.97;68.45
80294;BME280;69594;43.516;1.498;2023-05-21T04:10:14;99486.69;;;13.98;68.44
80294;BME280;69594;43.516;1.498;2023-05-21T04:12:39;99490.94;;;13.99;68.60
80294;BME280;69594;43.516;1.498;2023-05-21T04:15:05;99492.59;;;14.00;68.52
80294;BME280;69594;43.516;1.498;2023-05-21T04:17:31;99506.75;;;13.99;68.46
80294;BME280;69594;43.516;1.498;2023-05-21T04:19:57;99501.16;;;14.02;68.20
80294;BME280;69594;43.516;1.498;2023-05-21T04:22:22;99492.97;;;13.97;68.53
80294;BME280;69594;43.516;1.498;2023-05-21T04:24:50;99496.97;;;13.93;68.74
80294;BME280;69594;43.516;1.498;2023-05-21T04:27:17;99500.59;;;13.92;68.72
80294;BME280;69594;43.516;1.498;2023-05-21T04:29:43;99500.94;;;13.89;68.81
80294;BME280;69594;43.516;1.498;2023-05-21T04:32:08;99509.59;;;13.98;68.45
80294;BME280;69594;43.516;1.498;2023-05-21T04:34:34;99505.16;;;13.98;68.58
80294;BME280;69594;43.516;1.498;2023-05-21T04:36:59;99507.78;;;13.98;68.72
80294;BME280;69594;43.516;1.498;2023-05-21T04:39:26;99511.41;;;13.97;68.52
80294;BME280;69594;43.516;1.498;2023-05-21T04:41:53;99514.50;;;14.01;68.51
80294;BME280;69594;43.516;1.498;2023-05-21T04:44:20;99511.03;;;14.00;68.51
80294;BME280;69594;43.516;1.498;2023-05-21T04:46:46;99510.88;;;14.02;68.57
80294;BME280;69594;43.516;1.498;2023-05-21T04:49:13;99515.59;;;14.07;68.26
80294;BME280;69594;43.516;1.498;2023-05-21T04:51:39;99508.69;;;14.05;68.20
80294;BME280;69594;43.516;1.498;2023-05-21T04:54:06;99517.84;;;14.10;68.19
80294;BME280;69594;43.516;1.498;2023-05-21T04:56:31;99518.34;;;14.13;68.16
80294;BME280;69594;43.516;1.498;2023-05-21T04:58:57;99511.25;;;14.14;68.19
80294;BME280;69594;43.516;1.498;2023-05-21T05:01:23;99526.53;;;14.18;68.62
80294;BME280;69594;43.516;1.498;2023-05-21T05:03:53;99518.78;;;14.17;68.38
80294;BME280;69594;43.516;1.498;2023-05-21T05:06:19;99515.16;;;14.18;68.55
80294;BME280;69594;43.516;1.498;2023-05-21T05:08:47;99525.97;;;14.23;68.38
80294;BME280;69594;43.516;1.498;2023-05-21T05:11:13;99521.84;;;14.20;68.47
80294;BME280;69594;43.516;1.498;2023-05-21T05:13:39;99522.34;;;14.24;68.63
80294;BME280;69594;43.516;1.498;2023-05-21T05:16:08;99520.88;;;14.21;68.60
80294;BME280;69594;43.516;1.498;2023-05-21T05:18:33;99521.97;;;14.27;68.30
80294;BME280;69594;43.516;1.498;2023-05-21T05:21:00;99521.34;;;14.25;68.63
80294;BME280;69594;43.516;1.498;2023-05-21T05:23:25;99526.88;;;14.30;68.44
80294;BME280;69594;43.516;1.498;2023-05-21T05:25:50;99524.59;;;14.27;68.62
80294;BME280;69594;43.516;1.498;2023-05-21T05:28:16;99529.53;;;14.30;68.66
80294;BME280;69594;43.516;1.498;2023-05-21T05:30:41;99534.97;;;14.28;68.49
80294;BME280;69594;43.516;1.498;2023-05-21T05:33:07;99535.41;;;14.32;68.33
80294;BME280;69594;43.516;1.498;2023-05-21T05:35:32;99536.69;;;14.36;68.32
80294;BME280;69594;43.516;1.498;2023-05-21T05:37:57;99538.81;;;14.40;68.21
80294;BME280;69594;43.516;1.498;2023-05-21T05:40:23;99530.53;;;14.43;68.06
80294;BME280;69594;43.516;1.498;2023-05-21T05:42:48;99540.09;;;14.44;68.02
80294;BME280;69594;43.516;1.498;2023-05-21T05:45:17;99533.25;;;14.50;67.81
80294;BME280;69594;43.516;1.498;2023-05-21T05:47:42;99534.88;;;14.51;67.89
80294;BME280;69594;43.516;1.498;2023-05-21T05:50:08;99534.16;;;14.57;67.79
80294;BME280;69594;43.516;1.498;2023-05-21T05:52:33;99538.31;;;14.66;67.81
80294;BME280;69594;43.516;1.498;2023-05-21T05:54:58;99533.50;;;14.70;67.37
80294;BME280;69594;43.516;1.498;2023-05-21T05:57:24;99533.13;;;14.73;67.22
80294;BME280;69594;43.516;1.498;2023-05-21T05:59:49;99531.56;;;14.78;67.31
80294;BME280;69594;43.516;1.498;2023-05-21T06:02:14;99532.56;;;14.77;67.58
80294;BME280;69594;43.516;1.498;2023-05-21T06:04:40;99535.91;;;14.86;67.25
80294;BME280;69594;43.516;1.498;2023-05-21T06:07:05;99530.38;;;14.81;67.43
80294;BME280;69594;43.516;1.498;2023-05-21T06:09:30;99527.88;;;14.94;67.19
80294;BME280;69594;43.516;1.498;2023-05-21T06:11:56;99533.84;;;15.03;66.76
80294;BME280;69594;43.516;1.498;2023-05-21T06:14:21;99532.75;;;15.12;66.55
80294;BME280;69594;43.516;1.498;2023-05-21T06:16:47;99533.00;;;15.17;66.39
80294;BME280;69594;43.516;1.498;2023-05-21T06:19:12;99524.75;;;15.26;66.45
80294;BME280;69594;43.516;1.498;2023-05-21T06:21:38;99534.66;;;15.46;66.11
80294;BME280;69594;43.516;1.498;2023-05-21T06:24:03;99536.44;;;15.60;66.14
80294;BME280;69594;43.516;1.498;2023-05-21T06:26:28;99534.50;;;15.68;65.78
80294;BME280;69594;43.516;1.498;2023-05-21T06:28:54;99539.44;;;15.78;65.72
80294;BME280;69594;43.516;1.498;2023-05-21T06:31:20;99541.50;;;15.83;65.64
80294;BME280;69594;43.516;1.498;2023-05-21T06:33:47;99537.47;;;15.87;65.38
80294;BME280;69594;43.516;1.498;2023-05-21T06:36:13;99534.09;;;15.99;65.22
80294;BME280;69594;43.516;1.498;2023-05-21T06:38:39;99530.13;;;16.16;64.62
80294;BME280;69594;43.516;1.498;2023-05-21T06:41:05;99535.38;;;16.44;64.13
80294;BME280;69594;43.516;1.498;2023-05-21T06:43:30;99537.94;;;16.66;63.75
80294;BME280;69594;43.516;1.498;2023-05-21T06:45:55;99537.44;;;17.03;63.12
80294;BME280;69594;43.516;1.498;2023-05-21T06:48:21;99533.22;;;17.35;62.22
80294;BME280;69594;43.516;1.498;2023-05-21T06:50:46;99526.09;;;17.55;61.64
80294;BME280;69594;43.516;1.498;2023-05-21T06:53:12;99534.25;;;17.67;61.11
80294;BME280;69594;43.516;1.498;2023-05-21T06:55:40;99541.81;;;17.83;60.92
80294;BME280;69594;43.516;1.498;2023-05-21T06:58:09;99539.53;;;18.00;60.49
80294;BME280;69594;43.516;1.498;2023-05-21T07:00:35;99538.91;;;18.17;60.21
80294;BME280;69594;43.516;1.498;2023-05-21T07:03:00;99544.53;;;18.41;59.62
80294;BME280;69594;43.516;1.498;2023-05-21T07:05:25;99540.44;;;18.58;59.05
80294;BME280;69594;43.516;1.498;2023-05-21T07:07:51;99544.47;;;18.67;58.79
80294;BME280;69594;43.516;1.498;2023-05-21T07:10:16;99543.03;;;18.71;58.67
80294;BME280;69594;43.516;1.498;2023-05-21T07:12:42;99555.91;;;18.74;58.80
80294;BME280;69594;43.516;1.498;2023-05-21T07:15:07;99541.97;;;18.79;58.46
80294;BME280;69594;43.516;1.498;2023-05-21T07:17:33;99546.09;;;18.75;58.78
80294;BME280;69594;43.516;1.498;2023-05-21T07:19:58;99549.03;;;18.60;58.80
80294;BME280;69594;43.516;1.498;2023-05-21T07:22:27;99547.00;;;18.36;59.43
80294;BME280;69594;43.516;1.498;2023-05-21T07:24:52;99546.44;;;18.34;59.38
80294;BME280;69594;43.516;1.498;2023-05-21T07:27:17;99546.44;;;18.34;59.26
80294;BME280;69594;43.516;1.498;2023-05-21T07:29:43;99553.38;;;18.28;59.51
80294;BME280;69594;43.516;1.498;2023-05-21T07:32:08;99550.75;;;18.08;59.75
80294;BME280;69594;43.516;1.498;2023-05-21T07:34:34;99556.28;;;18.07;59.93
80294;BME280;69594;43.516;1.498;2023-05-21T07:36:59;99549.97;;;17.88;60.14
80294;BME280;69594;43.516;1.498;2023-05-21T07:39:24;99554.47;;;17.68;60.68
80294;BME280;69594;43.516;1.498;2023-05-21T07:41:50;99554.44;;;17.48;61.15
80294;BME280;69594;43.516;1.498;2023-05-21T07:44:15;99555.03;;;17.43;61.14
80294;BME280;69594;43.516;1.498;2023-05-21T07:46:41;99560.13;;;17.52;61.22
80294;BME280;69594;43.516;1.498;2023-05-21T07:49:06;99555.25;;;17.55;61.26
80294;BME280;69594;43.516;1.498;2023-05-21T07:51:33;99556.94;;;17.76;60.67
80294;BME280;69594;43.516;1.498;2023-05-21T07:53:58;99560.97;;;17.98;60.32
80294;BME280;69594;43.516;1.498;2023-05-21T07:56:23;99554.84;;;18.04;60.19
80294;BME280;69594;43.516;1.498;2023-05-21T07:58:49;99559.75;;;18.07;60.37
80294;BME280;69594;43.516;1.498;2023-05-21T08:01:14;99562.38;;;18.14;60.00
80294;BME280;69594;43.516;1.498;2023-05-21T08:03:40;99555.81;;;18.30;59.31
80294;BME280;69594;43.516;1.498;2023-05-21T08:06:05;99561.75;;;18.25;59.58
80294;BME280;69594;43.516;1.498;2023-05-21T08:08:30;99560.34;;;18.22;59.49
80294;BME280;69594;43.516;1.498;2023-05-21T08:10:56;99558.28;;;18.24;59.27
80294;BME280;69594;43.516;1.498;2023-05-21T08:13:22;99564.81;;;18.29;59.29
80294;BME280;69594;43.516;1.498;2023-05-21T08:15:47;99561.34;;;18.28;59.03
80294;BME280;69594;43.516;1.498;2023-05-21T08:18:13;99553.38;;;18.21;59.59
80294;BME280;69594;43.516;1.498;2023-05-21T08:20:38;99565.59;;;18.36;59.35
80294;BME280;69594;43.516;1.498;2023-05-21T08:23:04;99558.19;;;18.51;59.39
80294;BME280;69594;43.516;1.498;2023-05-21T08:25:30;99561.28;;;18.48;59.13
80294;BME280;69594;43.516;1.498;2023-05-21T08:27:55;99553.06;;;18.69;58.52
80294;BME280;69594;43.516;1.498;2023-05-21T08:30:21;99559.09;;;18.89;58.23
80294;BME280;69594;43.516;1.498;2023-05-21T08:32:47;99564.28;;;19.16;57.98
80294;BME280;69594;43.516;1.498;2023-05-21T08:35:12;99556.66;;;19.26;57.60
80294;BME280;69594;43.516;1.498;2023-05-21T08:37:38;99559.81;;;19.41;57.34
80294;BME280;69594;43.516;1.498;2023-05-21T08:40:04;99561.38;;;19.55;57.20
80294;BME280;69594;43.516;1.498;2023-05-21T08:42:35;99570.00;;;19.75;56.37
80294;BME280;69594;43.516;1.498;2023-05-21T08:45:07;99562.34;;;19.85;55.79
80294;BME280;69594;43.516;1.498;2023-05-21T08:47:35;99570.66;;;19.95;55.95
80294;BME280;69594;43.516;1.498;2023-05-21T08:50:06;99570.97;;;20.06;55.35
80294;BME280;69594;43.516;1.498;2023-05-21T08:52:33;99569.66;;;20.40;55.19
80294;BME280;69594;43.516;1.498;2023-05-21T08:54:59;99569.78;;;21.11;53.60
80294;BME280;69594;43.516;1.498;2023-05-21T08:57:26;99562.66;;;21.76;51.99
80294;BME280;69594;43.516;1.498;2023-05-21T08:59:51;99556.28;;;22.35;51.05
80294;BME280;69594;43.516;1.498;2023-05-21T09:02:17;99552.84;;;22.75;50.42
80294;BME280;69594;43.516;1.498;2023-05-21T09:04:44;99559.19;;;22.97;49.74
80294;BME280;69594;43.516;1.498;2023-05-21T09:07:14;99561.00;;;22.68;50.55
80294;BME280;69594;43.516;1.498;2023-05-21T09:10:00;99561.63;;;22.35;49.58
80294;BME280;69594;43.516;1.498;2023-05-21T09:12:27;99561.31;;;22.32;51.02
80294;BME280;69594;43.516;1.498;2023-05-21T09:14:53;99568.72;;;22.30;51.18
80294;BME280;69594;43.516;1.498;2023-05-21T09:17:19;99565.38;;;22.11;51.24
80294;BME280;69594;43.516;1.498;2023-05-21T09:20:06;99576.53;;;21.96;49.96
80294;BME280;69594;43.516;1.498;2023-05-21T09:22:51;99569.06;;;21.75;52.05
80294;BME280;69594;43.516;1.498;2023-05-21T09:25:25;99573.94;;;21.90;50.50
80294;BME280;69594;43.516;1.498;2023-05-21T09:27:57;99569.91;;;22.11;50.49
80294;BME280;69594;43.516;1.498;2023-05-21T09:30:23;99570.81;;;22.39;50.78
80294;BME280;69594;43.516;1.498;2023-05-21T09:32:55;99566.97;;;22.59;49.35
80294;BME280;69594;43.516;1.498;2023-05-21T09:35:21;99571.00;;;22.73;49.96
80294;BME280;69594;43.516;1.498;2023-05-21T09:37:47;99570.78;;;22.74;49.20
80294;BME280;69594;43.516;1.498;2023-05-21T09:40:14;99570.81;;;22.91;49.24
80294;BME280;69594;43.516;1.498;2023-05-21T09:42:41;99573.09;;;22.59;49.76
80294;BME280;69594;43.516;1.498;2023-05-21T09:45:10;99571.03;;;22.50;48.86
80294;BME280;69594;43.516;1.498;2023-05-21T09:47:42;99576.97;;;22.28;49.13
80294;BME280;69594;43.516;1.498;2023-05-21T09:50:12;99576.75;;;21.95;49.47
80294;BME280;69594;43.516;1.498;2023-05-21T09:52:38;99585.31;;;21.74;51.07
80294;BME280;69594;43.516;1.498;2023-05-21T09:55:05;99578.34;;;21.31;51.29
80294;BME280;69594;43.516;1.498;2023-05-21T09:57:31;99585.88;;;21.04;51.96
80294;BME280;69594;43.516;1.498;2023-05-21T09:59:57;99587.03;;;20.78;52.30
80294;BME280;69594;43.516;1.498;2023-05-21T10:02:23;99590.53;;;20.61;52.81
80294;BME280;69594;43.516;1.498;2023-05-21T10:04:51;99600.50;;;20.47;53.27
80294;BME280;69594;43.516;1.498;2023-05-21T10:07:20;99591.19;;;20.38;53.40
80294;BME280;69594;43.516;1.498;2023-05-21T10:09:53;99587.13;;;20.35;53.61
80294;BME280;69594;43.516;1.498;2023-05-21T10:12:22;99600.34;;;20.42;53.26
80294;BME280;69594;43.516;1.498;2023-05-21T10:14:59;99600.13;;;20.44;52.87
80294;BME280;69594;43.516;1.498;2023-05-21T10:17:26;99597.53;;;20.37;53.28
80294;BME280;69594;43.516;1.498;2023-05-21T10:19:54;99592.44;;;20.11;53.74
80294;BME280;69594;43.516;1.498;2023-05-21T10:22:22;99590.66;;;19.80;53.90
80294;BME280;69594;43.516;1.498;2023-05-21T10:24:49;99597.16;;;19.59;54.60
80294;BME280;69594;43.516;1.498;2023-05-21T10:27:15;99599.16;;;19.32;55.41
80294;BME280;69594;43.516;1.498;2023-05-21T10:29:42;99592.78;;;19.33;55.56
80294;BME280;69594;43.516;1.498;2023-05-21T10:32:11;99598.28;;;19.38;55.62
80294;BME280;69594;43.516;1.498;2023-05-21T10:34:37;99599.38;;;19.31;55.52
80294;BME280;69594;43.516;1.498;2023-05-21T10:37:03;99598.59;;;19.24;55.67
80294;BME280;69594;43.516;1.498;2023-05-21T10:39:32;99597.41;;;19.13;55.97
80294;BME280;69594;43.516;1.498;2023-05-21T10:42:13;99602.44;;;18.90;56.55
80294;BME280;69594;43.516;1.498;2023-05-21T11:01:00;99588.59;;;19.57;55.45
80294;BME280;69594;43.516;1.498;2023-05-21T11:03:27;99597.06;;;19.72;54.98
80294;BME280;69594;43.516;1.498;2023-05-21T11:05:55;99596.31;;;19.65;55.13
80294;BME280;69594;43.516;1.498;2023-05-21T11:08:21;99597.00;;;19.54;55.52
80294;BME280;69594;43.516;1.498;2023-05-21T11:10:51;99584.09;;;19.58;55.47
80294;BME280;69594;43.516;1.498;2023-05-21T11:13:16;99594.31;;;19.54;55.63
80294;BME280;69594;43.516;1.498;2023-05-21T11:18:21;99591.03;;;19.59;55.16
80294;BME280;69594;43.516;1.498;2023-05-21T11:20:50;99589.34;;;19.64;54.38
80294;BME280;69594;43.516;1.498;2023-05-21T11:23:15;99594.13;;;19.80;54.70
80294;BME280;69594;43.516;1.498;2023-05-21T11:25:41;99593.53;;;20.03;54.36
80294;BME280;69594;43.516;1.498;2023-05-21T11:28:06;99588.75;;;19.87;54.27
80294;BME280;69594;43.516;1.498;2023-05-21T11:30:33;99588.63;;;20.00;54.19
80294;BME280;69594;43.516;1.498;2023-05-21T11:35:56;99588.00;;;19.80;54.43
80294;BME280;69594;43.516;1.498;2023-05-21T11:38:22;99585.34;;;20.05;54.32
80294;BME280;69594;43.516;1.498;2023-05-21T11:40:53;99593.97;;;20.00;54.54
80294;BME280;69594;43.516;1.498;2023-05-21T11:43:19;99588.81;;;19.80;55.12
80294;BME280;69594;43.516;1.498;2023-05-21T11:45:45;99595.31;;;19.60;55.91
80294;BME280;69594;43.516;1.498;2023-05-21T11:48:14;99586.63;;;19.46;56.40
80294;BME280;69594;43.516;1.498;2023-05-21T11:50:40;99593.25;;;19.30;56.99
80294;BME280;69594;43.516;1.498;2023-05-21T11:53:06;99589.69;;;19.12;57.59
80294;BME280;69594;43.516;1.498;2023-05-21T11:55:37;99588.94;;;18.91;58.57
80294;BME280;69594;43.516;1.498;2023-05-21T11:58:03;99594.69;;;18.88;58.40
80294;BME280;69594;43.516;1.498;2023-05-21T12:00:30;99591.44;;;18.80;58.70
80294;BME280;69594;43.516;1.498;2023-05-21T12:02:55;99592.50;;;18.72;58.58
80294;BME280;69594;43.516;1.498;2023-05-21T12:05:21;99597.22;;;18.63;58.89
80294;BME280;69594;43.516;1.498;2023-05-21T12:07:47;99589.91;;;18.59;58.94
80294;BME280;69594;43.516;1.498;2023-05-21T12:10:14;99588.88;;;18.60;58.96
80294;BME280;69594;43.516;1.498;2023-05-21T12:12:39;99588.25;;;18.58;59.15
80294;BME280;69594;43.516;1.498;2023-05-21T12:15:05;99589.28;;;18.44;60.38
80294;BME280;69594;43.516;1.498;2023-05-21T12:17:31;99589.50;;;18.36;60.16
80294;BME280;69594;43.516;1.498;2023-05-21T12:19:57;99582.97;;;18.32;60.60
80294;BME280;69594;43.516;1.498;2023-05-21T12:22:24;99588.69;;;18.42;60.02
80294;BME280;69594;43.516;1.498;2023-05-21T12:24:50;99597.25;;;18.44;60.28
80294;BME280;69594;43.516;1.498;2023-05-21T12:27:17;99591.94;;;18.44;60.83
80294;BME280;69594;43.516;1.498;2023-05-21T12:29:45;99591.34;;;18.42;60.81
80294;BME280;69594;43.516;1.498;2023-05-21T12:32:14;99593.94;;;18.68;60.26
80294;BME280;69594;43.516;1.498;2023-05-21T12:34:51;99575.53;;;18.73;60.41
80294;BME280;69594;43.516;1.498;2023-05-21T12:37:23;99582.38;;;19.00;59.02
80294;BME280;69594;43.516;1.498;2023-05-21T12:39:51;99574.97;;;19.47;57.68
80294;BME280;69594;43.516;1.498;2023-05-21T12:42:24;99574.94;;;19.78;57.71
80294;BME280;69594;43.516;1.498;2023-05-21T12:44:51;99575.56;;;19.99;56.65
80294;BME280;69594;43.516;1.498;2023-05-21T12:47:17;99579.28;;;20.16;56.15
80294;BME280;69594;43.516;1.498;2023-05-21T12:49:44;99574.22;;;20.32;55.79
80294;BME280;69594;43.516;1.498;2023-05-21T12:52:13;99566.31;;;20.62;55.43
80294;BME280;69594;43.516;1.498;2023-05-21T12:54:41;99567.75;;;20.95;54.83
80294;BME280;69594;43.516;1.498;2023-05-21T13:02:08;99561.91;;;21.34;53.91
80294;BME280;69594;43.516;1.498;2023-05-21T13:04:37;99556.41;;;21.71;52.95
80294;BME280;69594;43.516;1.498;2023-05-21T13:07:02;99554.13;;;22.09;52.34
80294;BME280;69594;43.516;1.498;2023-05-21T13:09:28;99557.13;;;22.24;51.78
80294;BME280;69594;43.516;1.498;2023-05-21T13:11:53;99559.41;;;22.56;51.18
80294;BME280;69594;43.516;1.498;2023-05-21T13:14:19;99551.72;;;22.71;50.81
80294;BME280;69594;43.516;1.498;2023-05-21T13:16:46;99553.19;;;22.90;50.49
80294;BME280;69594;43.516;1.498;2023-05-21T13:19:11;99542.69;;;23.17;50.30
80294;BME280;69594;43.516;1.498;2023-05-21T13:21:39;99547.25;;;23.33;50.00
80294;BME280;69594;43.516;1.498;2023-05-21T13:24:04;99544.56;;;23.61;49.03
80294;BME280;69594;43.516;1.498;2023-05-21T13:26:31;99541.47;;;23.86;48.62